Time;durP1;ratioP1;P1;durP2;ratioP2;P2;SDS_P1;SDS_P2;PMS_P1;PMS_P2;Temp;Humidity;BMP_temperature;BMP_pressure;BME280_temperature;BME280_humidity;BME280_pressure;Samples;Min_cycle;Max_cycle;Signal;HPM_P1;HPM_P2
2021/03/24 00:00:20;;;;;;;24.42;12.27;;;;;;;5.73;75.43;102429.78;5040977;28;20037;-74
2021/03/24 00:02:46;;;;;;;24.88;12.55;;;;;;;5.70;75.43;102427.47;5043055;28;20507;-75
2021/03/24 00:05:14;;;;;;;24.98;12.52;;;;;;;5.72;75.49;102422.78;5042356;28;20568;-74
2021/03/24 00:07:41;;;;;;;23.20;12.60;;;;;;;5.69;75.70;102427.66;5040052;28;20035;-74
2021/03/24 00:10:08;;;;;;;23.58;12.60;;;;;;;5.62;75.96;102424.88;5041564;28;20037;-74
2021/03/24 00:12:35;;;;;;;25.90;12.38;;;;;;;5.61;76.35;102423.22;5045637;28;20520;-74
2021/03/24 00:15:03;;;;;;;23.98;11.50;;;;;;;5.72;75.28;102430.78;5040525;28;20037;-74
2021/03/24 00:17:29;;;;;;;26.85;12.52;;;;;;;5.74;75.34;102427.94;5041678;28;20048;-74
2021/03/24 00:19:55;;;;;;;24.05;12.85;;;;;;;5.74;75.58;102423.47;5044160;28;20029;-74
2021/03/24 00:22:20;;;;;;;23.55;12.02;;;;;;;5.61;76.41;102425.03;5039062;28;20040;-76
2021/03/24 00:24:46;;;;;;;23.38;12.40;;;;;;;5.61;76.50;102425.88;5043652;28;20045;-74
2021/03/24 00:27:11;;;;;;;25.52;12.98;;;;;;;5.54;76.81;102430.22;5042776;28;20112;-74
2021/03/24 00:29:37;;;;;;;24.50;13.05;;;;;;;5.61;76.00;102422.38;5046934;28;20495;-74
2021/03/24 00:32:03;;;;;;;28.42;13.27;;;;;;;5.63;76.06;102423.03;5037412;28;20033;-74
2021/03/24 00:34:28;;;;;;;24.45;13.88;;;;;;;5.70;75.34;102416.81;5044793;28;20022;-74
2021/03/24 00:36:54;;;;;;;28.20;13.70;;;;;;;5.60;76.34;102415.41;5040688;28;20031;-75
2021/03/24 00:39:19;;;;;;;22.73;11.98;;;;;;;5.55;76.12;102418.56;5040953;28;20029;-74
2021/03/24 00:41:45;;;;;;;27.90;13.45;;;;;;;5.49;76.48;102418.44;5041201;28;20123;-74
2021/03/24 00:44:10;;;;;;;30.73;14.02;;;;;;;5.35;77.25;102414.69;5042521;28;20044;-74
2021/03/24 00:46:36;;;;;;;26.20;12.95;;;;;;;5.44;76.27;102409.16;5041827;28;20068;-74
2021/03/24 00:49:02;;;;;;;27.50;14.05;;;;;;;5.44;76.17;102408.34;5043247;28;20040;-74
2021/03/24 00:51:27;;;;;;;29.38;15.57;;;;;;;5.18;76.54;102415.75;5045567;28;20033;-74
2021/03/24 00:53:53;;;;;;;26.80;14.10;;;;;;;5.26;76.35;102413.06;5039819;28;20033;-75
2021/03/24 00:56:18;;;;;;;31.75;16.08;;;;;;;5.31;75.75;102410.72;5040204;28;20090;-74
2021/03/24 00:58:44;;;;;;;26.83;15.38;;;;;;;5.41;74.00;102406.03;5042694;28;20033;-74
2021/03/24 01:01:09;;;;;;;28.63;15.15;;;;;;;5.38;73.14;102412.50;5039821;28;20590;-74
2021/03/24 01:03:37;;;;;;;32.95;16.85;;;;;;;5.41;72.16;102408.69;5042802;28;20483;-74
2021/03/24 01:06:03;;;;;;;35.35;16.58;;;;;;;5.46;71.88;102403.66;5044070;28;20029;-74
2021/03/24 01:08:28;;;;;;;28.23;16.33;;;;;;;5.48;71.30;102401.66;5033796;28;20179;-74
2021/03/24 01:10:56;;;;;;;34.20;17.23;;;;;;;5.49;71.53;102398.00;5045705;28;20107;-74
2021/03/24 01:13:22;;;;;;;30.30;16.45;;;;;;;5.45;71.26;102404.69;5045118;28;20043;-74
2021/03/24 01:15:49;;;;;;;34.70;16.45;;;;;;;5.48;71.51;102399.00;5044253;28;20037;-74
2021/03/24 01:18:16;;;;;;;29.42;15.05;;;;;;;5.50;71.31;102399.66;5035475;28;20029;-75
2021/03/24 01:20:42;;;;;;;30.50;15.00;;;;;;;5.45;71.40;102397.53;5039448;28;20048;-74
2021/03/24 01:23:08;;;;;;;30.10;16.30;;;;;;;5.53;71.01;102399.31;5040955;28;20043;-74
2021/03/24 01:25:34;;;;;;;30.50;16.30;;;;;;;5.47;71.17;102397.34;5045759;28;20037;-74
2021/03/24 01:28:03;;;;;;;30.00;15.98;;;;;;;5.53;71.29;102396.66;5035364;28;20032;-75
2021/03/24 01:30:31;;;;;;;31.60;15.10;;;;;;;5.36;70.89;102397.72;5043109;28;20558;-75
2021/03/24 01:32:58;;;;;;;29.17;14.70;;;;;;;5.41;70.95;102398.06;5046101;28;20033;-74
2021/03/24 01:35:24;;;;;;;31.85;14.73;;;;;;;5.40;71.10;102391.91;5041809;28;20792;-74
2021/03/24 01:37:51;;;;;;;27.83;15.55;;;;;;;5.39;71.20;102395.56;5039109;28;20035;-74
2021/03/24 01:40:48;;;;;;;26.55;14.63;;;;;;;5.36;70.82;102390.59;5045588;28;20454;-74
2021/03/24 01:43:35;;;;;;;31.88;15.88;;;;;;;5.28;71.37;102389.81;5044739;28;20060;-76
2021/03/24 01:46:19;;;;;;;32.17;15.82;;;;;;;5.32;71.19;102393.78;5043673;28;20025;-75
2021/03/24 01:48:57;;;;;;;26.55;14.32;;;;;;;5.38;71.03;102401.03;5029279;28;20032;-76
2021/03/24 01:51:31;;;;;;;27.35;15.60;;;;;;;5.35;70.96;102391.59;5039844;28;20354;-75
2021/03/24 01:53:57;;;;;;;30.17;15.52;;;;;;;5.41;71.06;102387.44;5043094;28;20035;-74
2021/03/24 01:56:25;;;;;;;29.00;14.88;;;;;;;5.41;71.24;102390.09;5042269;28;20026;-75
2021/03/24 01:58:51;;;;;;;31.27;15.25;;;;;;;5.38;70.76;102387.75;5036311;28;20048;-74
2021/03/24 02:01:19;;;;;;;28.13;15.63;;;;;;;5.43;71.11;102391.56;5043773;28;20116;-74
2021/03/24 02:03:45;;;;;;;29.83;15.57;;;;;;;5.34;70.76;102399.72;5041038;28;20487;-74
2021/03/24 02:06:16;;;;;;;28.73;15.23;;;;;;;5.33;71.09;102398.09;5045811;28;20098;-74
2021/03/24 02:08:45;;;;;;;27.80;14.57;;;;;;;5.41;70.67;102398.88;5042921;28;20033;-74
2021/03/24 02:11:26;;;;;;;31.05;15.30;;;;;;;5.36;70.63;102393.25;5040932;28;20055;-74
2021/03/24 02:14:21;;;;;;;28.77;14.30;;;;;;;5.30;70.64;102393.13;5038457;28;20025;-74
2021/03/24 02:16:50;;;;;;;27.23;14.93;;;;;;;5.19;70.37;102401.47;5041244;28;20554;-75
2021/03/24 02:19:51;;;;;;;28.50;14.23;;;;;;;5.21;70.17;102402.13;5038743;28;20033;-74
2021/03/24 02:22:22;;;;;;;31.75;15.82;;;;;;;5.23;69.74;102400.13;5046085;28;20118;-74
2021/03/24 02:24:56;;;;;;;25.45;14.10;;;;;;;5.22;68.38;102401.13;5045580;28;20029;-74
2021/03/24 02:27:37;;;;;;;27.52;14.93;;;;;;;5.21;68.94;102399.47;5037703;28;20025;-74
2021/03/24 02:30:08;;;;;;;22.33;11.88;;;;;;;5.20;68.90;102408.44;5045761;28;20613;-74
2021/03/24 02:32:38;;;;;;;26.20;13.52;;;;;;;5.21;68.61;102408.28;5058305;28;20120;-74
2021/03/24 02:35:10;;;;;;;27.02;13.15;;;;;;;5.25;68.87;102406.09;5051107;28;20033;-74
2021/03/24 02:37:36;;;;;;;24.58;13.52;;;;;;;5.28;67.95;102408.41;5045153;28;20032;-74
2021/03/24 02:40:07;;;;;;;22.30;12.85;;;;;;;5.27;67.28;102412.91;5049043;28;20040;-74
2021/03/24 02:42:33;;;;;;;27.52;12.65;;;;;;;5.32;67.81;102407.06;5047702;28;20029;-74
2021/03/24 02:44:59;;;;;;;24.83;12.98;;;;;;;5.30;67.76;102409.88;5046641;28;20606;-75
2021/03/24 02:47:25;;;;;;;28.17;12.70;;;;;;;5.20;67.23;102406.59;5047665;28;20025;-74
2021/03/24 02:49:51;;;;;;;25.75;11.70;;;;;;;5.29;67.69;102402.09;5040934;28;20036;-75
2021/03/24 02:52:16;;;;;;;26.00;12.43;;;;;;;5.34;67.33;102400.56;5048086;28;20036;-74
2021/03/24 02:54:45;;;;;;;25.92;12.98;;;;;;;5.34;67.48;102399.72;5048301;28;20044;-75
2021/03/24 02:57:10;;;;;;;27.58;12.20;;;;;;;5.38;67.39;102395.72;5042916;28;20483;-74
2021/03/24 02:59:36;;;;;;;24.50;11.55;;;;;;;5.47;67.24;102400.00;5045369;28;20033;-74
2021/03/24 03:02:15;;;;;;;21.27;11.88;;;;;;;5.41;66.84;102400.72;5046903;28;20163;-74
2021/03/24 03:04:45;;;;;;;23.50;11.93;;;;;;;5.44;66.79;102392.38;5044261;28;20025;-74
2021/03/24 03:07:33;;;;;;;22.92;12.00;;;;;;;5.41;66.91;102395.41;5045290;28;20021;-74
2021/03/24 03:10:15;;;;;;;20.88;11.05;;;;;;;5.42;66.76;102394.41;5033619;28;20466;-74
2021/03/24 03:13:01;;;;;;;20.08;10.85;;;;;;;5.29;66.60;102399.44;5038657;28;20029;-74
2021/03/24 03:15:33;;;;;;;19.73;10.40;;;;;;;5.32;66.81;102396.44;5049116;28;20195;-74
2021/03/24 03:18:08;;;;;;;18.48;10.48;;;;;;;5.30;66.21;102393.13;5038956;28;20549;-74
2021/03/24 03:20:40;;;;;;;19.67;10.07;;;;;;;5.28;66.28;102389.81;5041946;28;20083;-75
2021/03/24 03:23:14;;;;;;;18.17;10.15;;;;;;;5.28;66.27;102395.94;5047809;28;20032;-74
2021/03/24 03:25:42;;;;;;;19.93;10.67;;;;;;;5.27;66.68;102396.13;5045547;28;20112;-75
2021/03/24 03:28:10;;;;;;;22.05;10.65;;;;;;;5.31;66.44;102389.44;5048940;28;20446;-74
2021/03/24 03:30:39;;;;;;;19.60;10.00;;;;;;;5.31;66.57;102386.78;5049230;28;20031;-74
2021/03/24 03:33:09;;;;;;;19.50;10.40;;;;;;;5.36;66.46;102384.44;5046086;28;20492;-74
2021/03/24 03:35:37;;;;;;;20.83;10.55;;;;;;;5.35;66.89;102386.28;5047135;28;20026;-74
2021/03/24 03:38:06;;;;;;;20.42;10.95;;;;;;;5.32;66.67;102388.44;5042911;28;20036;-74
2021/03/24 03:40:34;;;;;;;20.80;11.30;;;;;;;5.31;66.92;102384.97;5046967;28;20028;-74
2021/03/24 03:43:02;;;;;;;18.45;10.65;;;;;;;5.34;66.90;102389.09;5048333;28;20025;-74
2021/03/24 03:45:29;;;;;;;19.27;10.43;;;;;;;5.35;66.65;102386.28;5043870;28;20029;-75
2021/03/24 03:47:55;;;;;;;20.65;10.90;;;;;;;5.33;66.73;102390.09;5041745;28;20045;-74
2021/03/24 03:50:24;;;;;;;19.10;10.38;;;;;;;5.29;66.77;102392.28;5047439;28;20118;-75
2021/03/24 03:53:03;;;;;;;20.13;10.82;;;;;;;5.33;67.23;102384.78;5047060;28;20033;-74
2021/03/24 03:55:40;;;;;;;17.63;10.18;;;;;;;5.34;66.93;102391.75;5040248;28;20016;-74
2021/03/24 03:58:15;;;;;;;21.73;11.15;;;;;;;5.36;67.29;102392.41;5060826;28;20076;-74
2021/03/24 04:01:09;;;;;;;19.20;11.20;;;;;;;5.30;67.49;102387.81;5044331;28;20036;-74
2021/03/24 04:03:42;;;;;;;19.85;11.68;;;;;;;5.41;67.27;102390.09;5041034;28;20503;-74
2021/03/24 04:06:15;;;;;;;21.00;10.77;;;;;;;5.43;67.58;102398.72;5042357;28;20090;-74
2021/03/24 04:08:44;;;;;;;25.58;13.70;;;;;;;5.45;67.60;102386.91;5040424;28;20025;-74
2021/03/24 04:11:10;;;;;;;22.08;12.38;;;;;;;5.48;67.68;102391.03;5042131;28;20028;-75
2021/03/24 04:13:42;;;;;;;22.23;12.95;;;;;;;5.45;68.03;102386.06;5048888;28;20391;-75
2021/03/24 04:16:07;;;;;;;23.25;12.25;;;;;;;5.50;67.81;102388.19;5047138;28;20105;-74
2021/03/24 04:18:35;;;;;;;23.45;13.10;;;;;;;5.27;69.03;102390.81;5037122;28;20476;-74
2021/03/24 04:21:02;;;;;;;26.55;13.13;;;;;;;5.24;68.70;102385.84;5044279;28;20594;-76
2021/03/24 04:23:34;;;;;;;27.38;12.60;;;;;;;5.16;68.76;102392.81;5042899;28;20048;-74
2021/03/24 04:26:14;;;;;;;26.75;13.40;;;;;;;5.24;69.11;102393.81;5041635;28;20028;-75
2021/03/24 04:28:44;;;;;;;23.75;13.02;;;;;;;5.30;68.93;102383.31;5042486;28;20083;-74
2021/03/24 04:31:13;;;;;;;29.63;13.68;;;;;;;5.19;69.61;102390.81;5045951;28;20116;-74
2021/03/24 04:33:39;;;;;;;26.00;13.50;;;;;;;5.23;69.77;102387.69;5045962;28;20087;-74
2021/03/24 04:36:32;;;;;;;27.95;14.38;;;;;;;5.27;69.61;102385.50;5046469;28;20071;-74
2021/03/24 04:39:06;;;;;;;26.42;13.90;;;;;;;5.31;69.41;102384.13;5037120;28;20029;-74
2021/03/24 04:41:37;;;;;;;28.83;14.10;;;;;;;5.40;69.02;102388.44;5030920;28;20031;-74
2021/03/24 04:44:26;;;;;;;31.17;14.82;;;;;;;5.08;72.39;102389.38;5045449;28;20391;-74
2021/03/24 04:46:57;;;;;;;31.63;16.77;;;;;;;5.17;71.46;102388.34;5041359;28;20048;-74
2021/03/24 04:49:26;;;;;;;26.92;15.02;;;;;;;5.18;71.40;102387.34;5045423;28;20025;-74
2021/03/24 04:51:53;;;;;;;30.10;14.50;;;;;;;5.20;71.52;102381.84;5044177;28;20032;-74
2021/03/24 04:54:29;;;;;;;28.25;14.35;;;;;;;5.23;71.38;102376.22;5047789;28;20029;-76
2021/03/24 04:57:06;;;;;;;28.17;14.35;;;;;;;5.12;72.82;102380.06;5048552;28;20060;-74
2021/03/24 04:59:42;;;;;;;34.80;16.08;;;;;;;4.90;75.17;102381.66;5041152;28;20025;-75
2021/03/24 05:02:15;;;;;;;30.65;15.65;;;;;;;4.88;74.79;102386.31;5047549;28;20036;-74
2021/03/24 05:05:09;;;;;;;35.83;15.98;;;;;;;4.91;75.29;102383.31;5041340;28;20080;-74
2021/03/24 05:07:43;;;;;;;30.00;16.77;;;;;;;4.90;74.79;102384.31;5041220;28;20039;-74
2021/03/24 05:10:33;;;;;;;28.50;15.53;;;;;;;4.81;75.61;102387.97;5045914;28;20071;-74
2021/03/24 05:13:12;;;;;;;34.33;16.50;;;;;;;4.89;75.42;102390.63;5046291;28;20480;-74
2021/03/24 05:15:42;;;;;;;31.63;17.17;;;;;;;4.98;74.92;102389.56;5061934;28;20040;-74
2021/03/24 05:18:12;;;;;;;31.38;16.50;;;;;;;4.91;75.76;102390.44;5044787;28;20062;-74
2021/03/24 05:21:02;;;;;;;30.65;17.10;;;;;;;4.68;77.77;102393.00;5039629;28;20110;-74
2021/03/24 05:23:29;;;;;;;31.60;16.25;;;;;;;4.68;76.78;102387.69;5040259;28;20139;-75
2021/03/24 05:26:02;;;;;;;32.70;16.73;;;;;;;4.79;76.31;102389.97;5043872;28;20082;-75
2021/03/24 05:28:39;;;;;;;35.17;17.67;;;;;;;4.84;76.25;102391.09;5039636;28;20063;-75
2021/03/24 05:31:14;;;;;;;42.38;18.63;;;;;;;4.90;76.39;102394.09;5043774;28;20028;-74
2021/03/24 05:33:48;;;;;;;33.60;16.50;;;;;;;4.91;76.38;102391.28;5044370;28;20687;-75
2021/03/24 05:36:27;;;;;;;33.03;16.08;;;;;;;4.76;77.63;102393.78;5037043;28;20108;-74
2021/03/24 05:38:53;;;;;;;32.90;17.55;;;;;;;4.83;77.25;102397.41;5036198;28;20029;-74
2021/03/24 05:41:44;;;;;;;30.70;16.65;;;;;;;4.86;77.37;102396.28;5036278;28;20024;-77
2021/03/24 05:44:43;;;;;;;37.63;16.98;;;;;;;4.97;76.18;102400.38;5042970;28;20024;-73
2021/03/24 05:47:28;;;;;;;37.78;17.55;;;;;;;5.08;75.44;102392.88;5056768;28;20024;-75
2021/03/24 05:50:27;;;;;;;32.47;16.60;;;;;;;5.15;75.40;102396.50;5042333;28;20040;-74
2021/03/24 05:53:15;;;;;;;34.67;16.13;;;;;;;5.30;74.11;102391.28;5044835;28;20043;-74
2021/03/24 05:56:18;;;;;;;33.25;15.27;;;;;;;5.38;74.37;102385.91;5043151;28;20115;-73
2021/03/24 05:59:05;;;;;;;32.28;16.38;;;;;;;5.47;73.71;102386.72;5042286;28;20036;-75
2021/03/24 06:01:46;;;;;;;28.35;15.10;;;;;;;5.47;73.78;102394.69;5039656;28;20039;-74
2021/03/24 06:04:30;;;;;;;28.77;14.27;;;;;;;5.30;73.59;102393.13;5048637;28;20255;-73
2021/03/24 06:07:32;;;;;;;28.95;15.85;;;;;;;5.26;74.66;102397.94;5039034;28;20048;-74
2021/03/24 06:10:22;;;;;;;31.67;15.60;;;;;;;5.19;75.30;102402.28;5040524;28;20152;-75
2021/03/24 06:13:14;;;;;;;28.80;14.82;;;;;;;5.26;74.62;102397.13;5044051;28;20815;-72
2021/03/24 06:15:57;;;;;;;25.88;13.75;;;;;;;5.29;73.60;102402.09;5038541;28;20068;-73
2021/03/24 06:18:23;;;;;;;27.65;13.93;;;;;;;5.32;73.29;102399.09;5042973;28;20525;-74
2021/03/24 06:20:57;;;;;;;25.48;13.15;;;;;;;5.45;72.93;102397.53;5039303;28;20036;-74
2021/03/24 06:23:49;;;;;;;29.38;14.50;;;;;;;5.60;71.86;102400.28;5041486;28;20021;-73
2021/03/24 06:26:40;;;;;;;22.65;12.02;;;;;;;5.67;71.19;102406.53;5037716;28;20205;-75
2021/03/24 06:29:40;;;;;;;25.50;12.65;;;;;;;5.59;71.32;102411.94;5041663;28;20024;-73
2021/03/24 06:32:25;;;;;;;24.63;13.68;;;;;;;5.60;71.22;102410.09;5036824;28;20511;-75
2021/03/24 06:35:12;;;;;;;23.85;12.82;;;;;;;5.65;70.64;102415.72;5051524;28;20045;-73
2021/03/24 06:37:40;;;;;;;25.45;11.63;;;;;;;5.66;71.04;102412.88;5039795;28;20036;-73
2021/03/24 06:40:33;;;;;;;28.33;12.60;;;;;;;5.79;70.36;102414.97;5031681;28;20411;-73
2021/03/24 06:43:15;;;;;;;23.60;11.40;;;;;;;5.72;70.21;102417.47;5046472;28;20479;-73
2021/03/24 06:45:50;;;;;;;22.10;11.07;;;;;;;5.67;69.64;102413.69;5040355;28;20496;-73
2021/03/24 06:48:37;;;;;;;28.05;13.70;;;;;;;5.80;70.15;102421.13;5044358;28;20070;-74
2021/03/24 06:51:49;;;;;;;25.65;12.93;;;;;;;5.91;69.62;102431.38;5043136;28;20554;-75
2021/03/24 06:54:24;;;;;;;22.25;11.63;;;;;;;5.96;69.65;102416.56;5040205;28;20041;-74
2021/03/24 06:57:27;;;;;;;23.38;13.43;;;;;;;5.92;69.94;102425.03;5042149;28;20072;-74
2021/03/24 07:00:16;;;;;;;22.50;11.40;;;;;;;5.97;70.33;102426.19;5040611;28;20129;-74
2021/03/24 07:02:48;;;;;;;24.70;12.93;;;;;;;5.99;70.03;102418.84;5035068;28;20040;-74
2021/03/24 07:05:46;;;;;;;22.55;11.55;;;;;;;6.12;70.22;102417.44;5045120;28;20052;-74
2021/03/24 07:08:36;;;;;;;22.23;11.85;;;;;;;6.15;70.00;102417.91;5053431;28;20116;-74
2021/03/24 07:11:20;;;;;;;25.17;13.93;;;;;;;6.12;70.81;102412.13;5037890;28;20025;-73
2021/03/24 07:14:07;;;;;;;21.88;11.82;;;;;;;6.35;69.60;102407.59;5040952;28;20017;-73
2021/03/24 07:16:58;;;;;;;23.77;11.38;;;;;;;6.46;69.00;102412.47;5044716;28;20036;-75
2021/03/24 07:19:41;;;;;;;21.20;12.02;;;;;;;6.59;68.44;102411.88;5047643;28;20032;-75
2021/03/24 07:22:44;;;;;;;24.80;11.57;;;;;;;6.41;67.82;102414.03;5045453;28;20031;-74
2021/03/24 07:25:13;;;;;;;19.30;10.35;;;;;;;6.19;68.81;102429.84;5041485;28;20025;-73
2021/03/24 07:28:20;;;;;;;20.60;11.45;;;;;;;6.08;70.18;102430.25;5044562;28;20025;-73
2021/03/24 07:31:04;;;;;;;17.58;10.57;;;;;;;6.12;69.74;102428.91;5050219;28;20383;-74
2021/03/24 07:33:39;;;;;;;26.05;12.23;;;;;;;6.13;69.60;102435.91;5058407;28;20025;-74
2021/03/24 07:36:16;;;;;;;29.42;12.77;;;;;;;6.21;69.99;102435.00;5051535;28;20480;-76
2021/03/24 07:38:47;;;;;;;21.15;11.52;;;;;;;6.42;68.79;102431.66;5044365;28;20460;-73
2021/03/24 07:41:25;;;;;;;22.27;12.95;;;;;;;6.54;68.27;102431.06;5042106;28;20484;-75
2021/03/24 07:44:32;;;;;;;23.13;11.80;;;;;;;6.41;67.41;102424.69;5044192;28;20499;-73
2021/03/24 07:47:32;;;;;;;20.90;12.23;;;;;;;6.52;67.99;102432.25;5062805;28;20522;-76
2021/03/24 07:50:36;;;;;;;26.23;13.00;;;;;;;6.48;68.29;102434.44;5038512;28;20036;-73
2021/03/24 07:53:59;;;;;;;25.08;13.02;;;;;;;6.48;68.33;102436.28;5053102;28;20121;-73
2021/03/24 07:56:24;;;;;;;23.38;12.63;;;;;;;6.20;70.44;102443.97;5064786;28;20078;-75
2021/03/24 07:59:15;;;;;;;21.73;12.20;;;;;;;6.28;69.59;102436.78;5064352;28;20024;-73
2021/03/24 08:01:47;;;;;;;23.80;12.75;;;;;;;6.33;69.07;102442.38;5050891;28;20529;-74
2021/03/24 08:04:43;;;;;;;21.55;12.02;;;;;;;6.30;68.85;102445.41;5045242;28;20033;-73
2021/03/24 08:07:11;;;;;;;24.85;12.80;;;;;;;6.36;69.43;102447.34;5054940;28;20114;-73
2021/03/24 08:10:09;;;;;;;28.90;13.13;;;;;;;6.50;69.47;102448.41;5045634;28;20025;-73
2021/03/24 08:12:54;;;;;;;23.80;13.73;;;;;;;6.54;69.13;102444.38;5041614;28;20041;-74
2021/03/24 08:16:00;;;;;;;22.50;13.35;;;;;;;6.44;69.20;102446.44;5045548;28;20620;-73
2021/03/24 08:19:00;;;;;;;26.10;13.63;;;;;;;6.45;69.19;102442.78;5064176;28;20071;-74
2021/03/24 08:21:48;;;;;;;28.17;13.63;;;;;;;6.47;69.38;102438.13;5047808;28;20024;-73
2021/03/24 08:24:20;;;;;;;25.38;13.95;;;;;;;6.60;68.95;102446.31;5045839;28;20016;-73
2021/03/24 08:26:55;;;;;;;27.65;12.75;;;;;;;6.45;68.83;102441.94;5046233;28;20066;-74
2021/03/24 08:29:48;;;;;;;27.38;15.07;;;;;;;6.65;68.75;102446.63;5049102;28;20036;-73
2021/03/24 08:32:57;;;;;;;28.98;15.52;;;;;;;6.77;68.09;102441.66;5062223;28;20029;-75
2021/03/24 08:35:35;;;;;;;33.03;18.10;;;;;;;7.09;66.80;102440.50;5040209;28;20032;-74
2021/03/24 08:38:01;;;;;;;28.23;15.27;;;;;;;7.10;66.36;102444.00;5047501;28;20479;-74
2021/03/24 08:41:04;;;;;;;24.92;14.48;;;;;;;7.21;66.55;102440.88;5041394;28;20083;-73
2021/03/24 08:44:06;;;;;;;24.73;13.88;;;;;;;7.31;66.54;102444.06;5042047;28;20028;-74
2021/03/24 08:46:42;;;;;;;25.40;13.63;;;;;;;7.19;65.25;102440.22;5060872;28;20563;-74
2021/03/24 08:49:15;;;;;;;28.95;13.45;;;;;;;7.23;65.67;102444.19;5045039;28;20044;-77
2021/03/24 08:52:00;;;;;;;21.75;13.52;;;;;;;7.44;65.22;102443.41;5038903;28;20093;-73
2021/03/24 08:55:01;;;;;;;24.93;13.63;;;;;;;7.61;65.04;102438.72;5046028;28;20017;-77
2021/03/24 08:57:46;;;;;;;22.58;13.30;;;;;;;7.61;64.75;102446.72;5048069;28;20040;-74
2021/03/24 09:00:30;;;;;;;25.98;14.77;;;;;;;7.85;64.30;102441.03;5039457;28;20403;-73
2021/03/24 09:03:18;;;;;;;26.00;14.70;;;;;;;8.08;62.53;102439.03;5042843;28;20060;-73
2021/03/24 09:05:58;;;;;;;23.67;14.48;;;;;;;8.41;61.64;102434.00;5042090;28;20036;-75
2021/03/24 09:08:30;;;;;;;27.55;15.02;;;;;;;8.41;61.46;102430.53;5046972;28;20032;-75
2021/03/24 09:11:20;;;;;;;28.63;16.05;;;;;;;8.57;61.05;102432.09;5040241;28;20029;-73
2021/03/24 09:14:07;;;;;;;31.27;15.68;;;;;;;8.54;60.85;102429.81;5037357;28;20033;-74
2021/03/24 09:16:59;;;;;;;30.85;17.15;;;;;;;8.45;61.71;102427.28;5038713;28;20021;-73
2021/03/24 09:19:46;;;;;;;32.67;16.83;;;;;;;8.57;60.86;102427.56;5059382;28;20054;-75
2021/03/24 09:22:42;;;;;;;31.00;17.50;;;;;;;8.66;60.46;102426.41;5041367;28;20017;-73
2021/03/24 09:25:33;;;;;;;36.45;17.55;;;;;;;8.70;60.04;102419.66;5042953;28;20391;-76
2021/03/24 09:28:10;;;;;;;35.08;17.67;;;;;;;8.88;60.64;102421.00;5044154;28;20044;-73
2021/03/24 09:30:50;;;;;;;31.17;17.48;;;;;;;9.06;60.27;102414.13;5041039;28;20029;-74
2021/03/24 09:33:27;;;;;;;33.03;18.80;;;;;;;9.10;60.27;102409.22;5039104;28;20037;-73
2021/03/24 09:36:02;;;;;;;31.80;17.02;;;;;;;9.24;59.75;102407.44;5042498;28;20399;-73
2021/03/24 09:38:34;;;;;;;34.97;18.27;;;;;;;9.14;60.09;102413.13;5042370;28;20689;-74
2021/03/24 09:41:18;;;;;;;33.45;19.17;;;;;;;9.18;59.55;102401.03;5044917;28;20037;-73
2021/03/24 09:44:08;;;;;;;40.85;17.83;;;;;;;9.33;59.95;102398.19;5045365;28;20511;-74
2021/03/24 09:46:36;;;;;;;33.75;17.92;;;;;;;9.54;58.97;102395.44;5044162;28;20032;-74
2021/03/24 09:49:11;;;;;;;34.53;18.05;;;;;;;9.61;58.61;102392.75;5041947;28;20021;-76
2021/03/24 09:51:48;;;;;;;33.58;18.95;;;;;;;9.25;58.31;102401.88;5045479;28;20028;-74
2021/03/24 09:54:24;;;;;;;30.83;17.45;;;;;;;9.32;58.81;102386.69;5045529;28;20021;-74
2021/03/24 09:57:06;;;;;;;33.05;16.65;;;;;;;9.49;58.55;102391.69;5043816;28;20494;-75
2021/03/24 10:00:06;;;;;;;29.75;17.60;;;;;;;9.45;57.90;102390.44;5043338;28;20084;-75
2021/03/24 10:02:40;;;;;;;29.33;18.48;;;;;;;9.73;57.91;102399.19;5044589;28;20498;-74
2021/03/24 10:05:13;;;;;;;32.33;17.80;;;;;;;9.44;58.43;102386.94;5042158;28;20041;-74
2021/03/24 10:07:57;;;;;;;35.25;18.17;;;;;;;9.66;58.04;102388.44;5041607;28;20033;-76
2021/03/24 10:10:25;;;;;;;33.22;17.60;;;;;;;9.69;58.12;102389.88;5043340;28;20032;-73
2021/03/24 10:12:54;;;;;;;33.40;18.98;;;;;;;9.15;59.45;102389.88;5036907;28;20033;-73
2021/03/24 10:15:41;;;;;;;36.00;19.33;;;;;;;9.46;59.47;102392.09;5041363;28;20040;-76
2021/03/24 10:18:09;;;;;;;38.17;19.90;;;;;;;9.12;56.96;102390.28;5041508;28;20095;-76
2021/03/24 10:20:59;;;;;;;37.97;20.00;;;;;;;9.03;55.63;102386.97;5058263;28;20048;-75
2021/03/24 10:23:35;;;;;;;38.67;19.98;;;;;;;8.92;55.90;102388.34;5038956;28;20919;-75
2021/03/24 10:26:23;;;;;;;31.20;18.23;;;;;;;9.17;55.85;102388.69;5044006;28;20475;-74
2021/03/24 10:28:57;;;;;;;35.85;20.35;;;;;;;8.97;56.47;102380.53;5039718;28;20484;-77
2021/03/24 10:31:30;;;;;;;34.97;20.50;;;;;;;8.91;57.38;102383.19;5045138;28;20068;-75
2021/03/24 10:34:10;;;;;;;39.28;20.58;;;;;;;8.85;55.97;102381.31;5041304;28;20068;-73
2021/03/24 10:37:07;;;;;;;35.70;19.52;;;;;;;8.81;57.25;102377.41;5044859;28;20078;-74
2021/03/24 10:39:38;;;;;;;34.80;19.05;;;;;;;9.07;56.45;102382.88;5038735;28;20085;-73
2021/03/24 10:42:15;;;;;;;38.83;21.63;;;;;;;8.95;55.68;102381.78;5043653;28;20399;-73
2021/03/24 10:44:47;;;;;;;35.05;19.40;;;;;;;8.94;55.43;102380.94;5040425;28;20116;-75
2021/03/24 10:47:28;;;;;;;40.42;20.40;;;;;;;8.46;56.23;102385.38;5045394;28;20040;-74
2021/03/24 10:50:17;;;;;;;39.13;20.98;;;;;;;8.70;56.84;102382.25;5046401;28;20017;-76
2021/03/24 10:52:58;;;;;;;37.13;20.48;;;;;;;8.99;56.31;102369.69;5048681;28;20021;-73
2021/03/24 10:55:25;;;;;;;38.47;20.17;;;;;;;8.95;56.21;102374.56;5043600;28;20086;-73
2021/03/24 10:58:10;;;;;;;38.17;20.02;;;;;;;8.95;56.42;102376.44;5046543;28;20914;-74
2021/03/24 11:00:40;;;;;;;36.63;19.77;;;;;;;9.03;56.86;102370.94;5058999;28;20039;-74
2021/03/24 11:03:15;;;;;;;45.22;21.48;;;;;;;9.27;56.41;102372.25;5043582;28;20122;-76
2021/03/24 11:05:48;;;;;;;40.92;21.10;;;;;;;8.94;56.78;102367.56;5040524;28;20123;-73
2021/03/24 11:08:27;;;;;;;39.20;21.75;;;;;;;8.87;57.38;102361.38;5049412;28;20040;-73
2021/03/24 11:11:21;;;;;;;39.95;21.60;;;;;;;9.09;56.62;102370.13;5047499;28;20035;-73
2021/03/24 11:13:49;;;;;;;41.50;21.45;;;;;;;9.02;55.99;102363.94;5048160;28;20032;-74
2021/03/24 11:16:29;;;;;;;40.60;22.70;;;;;;;9.06;55.75;102368.69;5044444;28;20689;-73
2021/03/24 11:19:09;;;;;;;40.15;21.23;;;;;;;9.12;55.63;102356.34;5043660;28;20442;-74
2021/03/24 11:22:00;;;;;;;40.80;22.48;;;;;;;9.07;55.89;102361.47;5045699;28;20594;-75
2021/03/24 11:24:30;;;;;;;41.20;23.67;;;;;;;9.18;55.31;102362.78;5039322;28;20044;-75
2021/03/24 11:27:01;;;;;;;43.88;23.27;;;;;;;9.26;55.37;102362.59;5044211;28;20029;-74
2021/03/24 11:29:30;;;;;;;42.97;22.83;;;;;;;9.16;54.81;102360.31;5041606;28;20029;-74
2021/03/24 11:32:05;;;;;;;43.88;23.23;;;;;;;9.69;53.82;102360.44;5043455;28;20492;-77
2021/03/24 11:34:49;;;;;;;45.58;21.25;;;;;;;9.81;52.97;102361.50;5032197;28;20021;-77
2021/03/24 11:37:33;;;;;;;48.03;23.45;;;;;;;9.81;52.38;102361.50;5054248;28;20391;-73
2021/03/24 11:40:08;;;;;;;43.85;23.88;;;;;;;9.35;50.72;102364.91;5040619;28;20037;-74
2021/03/24 11:42:35;;;;;;;;;;;;;;;9.51;51.71;102352.16;5045618;28;20495;-74
2021/03/24 11:45:09;;;;;;;52.92;24.75;;;;;;;9.43;50.56;102347.84;5040162;28;19920;-75
2021/03/24 11:48:07;;;;;;;52.22;25.30;;;;;;;9.67;51.53;102354.47;5044597;28;20025;-74
2021/03/24 11:50:53;;;;;;;48.97;25.55;;;;;;;9.90;51.91;102341.56;5044030;28;20526;-74
2021/03/24 11:53:34;;;;;;;48.58;25.63;;;;;;;9.85;50.95;102359.25;5046351;28;20409;-74
2021/03/24 11:56:42;;;;;;;53.20;25.38;;;;;;;9.76;51.79;102358.63;5043471;28;20053;-75
2021/03/24 11:59:26;;;;;;;51.42;25.38;;;;;;;9.64;52.19;102346.84;5044782;28;20041;-77
2021/03/24 12:01:58;;;;;;;52.30;27.48;;;;;;;9.75;52.18;102350.81;5044506;28;20110;-74
2021/03/24 12:05:14;;;;;;;51.47;25.02;;;;;;;9.49;53.06;102346.19;5038971;28;20033;-75